This is the latest recevied weather packets stored in our database for station/object XE1E-15. If no packets are shown the sender has not sent any weather packets the latest 10 day(s).
| Time | Temp. | Humidity | Pressure | Rain* | Wind** | Luminosity | Snow |
|---|---|---|---|---|---|---|---|
| 1778085165 | 33.89° C | 28% | 1024.3 hPa | - | - | - | - |
| 1778084205 | 34.44° C | 28% | 1024.3 hPa | - | - | - | - |
| 1778076048 | 25.56° C | 42% | 1024.2 hPa | - | - | - | - |
| 1778074128 | 25° C | 46% | 1024.2 hPa | - | - | - | - |
| 1778069327 | 23.89° C | 47% | 1023.8 hPa | - | - | - | - |
| 1778068367 | 23.89° C | 47% | 1023.9 hPa | - | - | - | - |
| 1778066447 | 23.33° C | 47% | 1023.8 hPa | - | - | - | - |
| 1778063895 | 23.89° C | 46% | 1023.6 hPa | - | - | - | - |
| 1778063565 | 23.89° C | 46% | 1023.6 hPa | - | - | - | - |
| 1778062605 | 23.89° C | 45% | 1023.6 hPa | - | - | - | - |
| 1778061645 | 24.44° C | 45% | 1023.6 hPa | - | - | - | - |
| 1778059724 | 24.44° C | 45% | 1023.7 hPa | - | - | - | - |
| 1778058764 | 24.44° C | 45% | 1023.7 hPa | - | - | - | - |
| 1778056370 | 24.44° C | 45% | 1023.9 hPa | - | - | - | - |
| 1778055406 | 25° C | 44% | 1024 hPa | - | - | - | - |
| 1778054446 | 25° C | 45% | 1024.1 hPa | - | - | - | - |
| 1778052526 | 25° C | 43% | 1024.3 hPa | - | - | - | - |
| 1778051566 | 25° C | 43% | 1024.3 hPa | - | - | - | - |
| 1778050605 | 25.56° C | 43% | 1024.5 hPa | - | - | - | - |
| 1778049645 | 25° C | 43% | 1024.7 hPa | - | - | - | - |
| 1778048685 | 25° C | 42% | 1024.8 hPa | - | - | - | - |
| 1778047725 | 25.56° C | 42% | 1025 hPa | - | - | - | - |
| 1778046765 | 26.11° C | 42% | 1024.9 hPa | - | - | - | - |
| 1778045805 | 25.56° C | 43% | 1024.9 hPa | - | - | - | - |
| 1778044845 | 25.56° C | 42% | 1024.9 hPa | - | - | - | - |
* Rain since midnight (hover to see other rain measurements)
** Current wind speed in m/s (hover to see current wind gust speed)